Time;durP1;ratioP1;P1;durP2;ratioP2;P2;SDS_P1;SDS_P2;PMS_P1;PMS_P2;Temp;Humidity;BMP_temperature;BMP_pressure;BME280_temperature;BME280_humidity;BME280_pressure;Samples;Min_cycle;Max_cycle;Signal;HPM_P1;HPM_P2
2023/11/22 00:01:42;;;;;;;;;;;;;;;;;;5007014;28;90287;-62
2023/11/22 00:04:07;;;;;;;;;;;;;;;;;;4993714;28;89618;-62
2023/11/22 00:06:32;;;;;;;;;;;;;;;;;;5002004;28;89699;-62
2023/11/22 00:08:57;;;;;;;;;;;;;;;;;;5006902;28;90039;-63
2023/11/22 00:11:22;;;;;;;;;;;;;;;;;;5007980;28;89858;-64
2023/11/22 00:13:49;;;;;;;;;;;;;;;;;;5007892;28;89437;-62
2023/11/22 00:16:14;;;;;;;;;;;;;;;;;;5007189;28;89174;-62
2023/11/22 00:18:40;;;;;;;;;;;;;;;;;;5006417;28;89758;-62
2023/11/22 00:21:05;;;;;;;;;;;;;;;;;;5006614;28;89541;-62
2023/11/22 00:23:31;;;;;;;;;;;;;;;;;;5007292;28;89488;-62
2023/11/22 00:25:59;;;;;;;;;;;;;;;;;;5010268;28;88994;-62
2023/11/22 00:28:24;;;;;;;;;;;;;;;;;;5006918;28;90105;-62
2023/11/22 00:30:49;;;;;;;;;;;;;;;;;;5006388;28;89125;-62
2023/11/22 00:33:14;;;;;;;;;;;;;;;;;;5007361;28;89571;-62
2023/11/22 00:35:40;;;;;;;;;;;;;;;;;;5006296;28;89360;-62
2023/11/22 00:38:05;;;;;;;;;;;;;;;;;;5006596;28;89043;-62
2023/11/22 00:40:31;;;;;;;;;;;;;;;;;;5006484;28;89603;-62
2023/11/22 00:42:57;;;;;;;;;;;;;;;;;;5006827;28;89666;-62
2023/11/22 00:45:23;;;;;;;;;;;;;;;;;;5006712;28;89262;-62
2023/11/22 00:47:48;;;;;;;;;;;;;;;;;;5010470;28;89486;-62
2023/11/22 00:50:13;;;;;;;;;;;;;;;;;;5010769;28;89530;-61
2023/11/22 00:52:39;;;;;;;;;;;;;;;;;;5010329;28;90567;-61
2023/11/22 00:55:05;;;;;;;;;;;;;;;;;;5008780;28;90520;-62
2023/11/22 00:57:30;;;;;;;;;;;;;;;;;;5009264;28;89001;-62
2023/11/22 00:59:55;;;;;;;;;;;;;;;;;;5010217;28;91038;-63
2023/11/22 01:02:21;;;;;;;;;;;;;;;;;;5002096;28;89901;-62
2023/11/22 01:04:46;;;;;;;;;;;;;;;;;;4990465;28;89710;-62
2023/11/22 01:07:11;;;;;;;;;;;;;;;;;;4991469;28;92119;-62
2023/11/22 01:09:36;;;;;;;;;;;;;;;;;;4989865;28;88901;-62
2023/11/22 01:12:02;;;;;;;;;;;;;;;;;;4990750;28;89103;-62
2023/11/22 01:14:27;;;;;;;;;;;;;;;;;;4990241;28;89219;-63
2023/11/22 01:16:54;;;;;;;;;;;;;;;;;;4990548;28;90028;-62
2023/11/22 01:19:19;;;;;;;;;;;;;;;;;;4989488;28;89542;-62
2023/11/22 01:21:44;;;;;;;;;;;;;;;;;;4989822;28;89377;-62
2023/11/22 01:24:09;;;;;;;;;;;;;;;;;;4990156;28;89695;-62
2023/11/22 01:26:35;;;;;;;;;;;;;;;;;;4989305;28;90855;-62
2023/11/22 01:29:00;;;;;;;;;;;;;;;;;;4992787;28;89642;-62
2023/11/22 01:31:27;;;;;;;;;;;;;;;;;;4989661;28;89418;-62
2023/11/22 01:33:52;;;;;;;;;;;;;;;;;;4999950;28;90235;-61
2023/11/22 01:36:17;;;;;;;;;;;;;;;;;;5010483;28;89107;-62
2023/11/22 01:38:44;;;;;;;;;;;;;;;;;;5008733;28;92580;-62
2023/11/22 01:41:09;;;;;;;;;;;;;;;;;;5009356;28;89529;-63
2023/11/22 01:43:35;;;;;;;;;;;;;;;;;;5008893;28;89608;-62
2023/11/22 01:46:00;;;;;;;;;;;;;;;;;;5009283;28;89480;-62
2023/11/22 01:48:25;;;;;;;;;;;;;;;;;;5026785;28;89356;-62
2023/11/22 01:50:51;;;;;;;;;;;;;;;;;;5029297;28;89485;-62
2023/11/22 01:53:16;;;;;;;;;;;;;;;;;;4990434;28;89283;-62
2023/11/22 01:55:44;;;;;;;;;;;;;;;;;;4998926;28;89068;-61
2023/11/22 01:58:10;;;;;;;;;;;;;;;;;;5009983;28;90688;-62
2023/11/22 02:00:36;;;;;;;;;;;;;;;;;;5027531;28;89800;-62
2023/11/22 02:03:02;;;;;;;;;;;;;;;;;;5029519;28;89633;-62
2023/11/22 02:05:27;;;;;;;;;;;;;;;;;;5029412;28;89423;-62
2023/11/22 02:07:52;;;;;;;;;;;;;;;;;;5028955;28;91081;-61
2023/11/22 02:10:18;;;;;;;;;;;;;;;;;;5029901;28;89732;-61
2023/11/22 02:12:43;;;;;;;;;;;;;;;;;;5025511;28;89558;-62
2023/11/22 02:15:08;;;;;;;;;;;;;;;;;;5008617;28;89038;-62
2023/11/22 02:17:34;;;;;;;;;;;;;;;;;;5008968;28;90692;-62
2023/11/22 02:19:59;;;;;;;;;;;;;;;;;;5009160;28;89695;-62
2023/11/22 02:22:25;;;;;;;;;;;;;;;;;;5009287;28;89111;-62
2023/11/22 02:24:50;;;;;;;;;;;;;;;;;;5009403;28;89652;-62
2023/11/22 02:27:15;;;;;;;;;;;;;;;;;;5008768;28;89098;-62
2023/11/22 02:29:41;;;;;;;;;;;;;;;;;;5008473;28;89065;-61
2023/11/22 02:32:06;;;;;;;;;;;;;;;;;;5008203;28;89373;-62
2023/11/22 02:34:31;;;;;;;;;;;;;;;;;;5011911;28;89058;-61
2023/11/22 02:36:57;;;;;;;;;;;;;;;;;;5009313;28;90729;-61
2023/11/22 02:39:25;;;;;;;;;;;;;;;;;;5009185;28;90275;-62
2023/11/22 02:41:50;;;;;;;;;;;;;;;;;;5009195;28;89034;-62
2023/11/22 02:44:17;;;;;;;;;;;;;;;;;;5008933;28;89505;-62
2023/11/22 02:46:42;;;;;;;;;;;;;;;;;;4994768;28;90184;-62
2023/11/22 02:49:07;;;;;;;;;;;;;;;;;;5028822;28;89366;-62
2023/11/22 02:51:33;;;;;;;;;;;;;;;;;;5028580;27;90660;-62
2023/11/22 02:53:59;;;;;;;;;;;;;;;;;;5030806;28;91493;-62
2023/11/22 02:56:25;;;;;;;;;;;;;;;;;;5028651;28;90015;-62
2023/11/22 02:58:50;;;;;;;;;;;;;;;;;;5028649;28;89344;-63
2023/11/22 03:01:16;;;;;;;;;;;;;;;;;;5029105;28;89108;-62
2023/11/22 03:03:41;;;;;;;;;;;;;;;;;;5028414;28;89707;-62
2023/11/22 03:06:06;;;;;;;;;;;;;;;;;;5028012;27;89960;-62
2023/11/22 03:08:32;;;;;;;;;;;;;;;;;;5028297;28;89297;-62
2023/11/22 03:10:57;;;;;;;;;;;;;;;;;;5028008;27;89352;-62
2023/11/22 03:13:23;;;;;;;;;;;;;;;;;;5028960;27;89261;-62
2023/11/22 03:15:48;;;;;;;;;;;;;;;;;;5032385;28;89350;-62
2023/11/22 03:18:13;;;;;;;;;;;;;;;;;;5028772;28;89215;-62
2023/11/22 03:20:39;;;;;;;;;;;;;;;;;;5028413;28;89473;-62
2023/11/22 03:23:04;;;;;;;;;;;;;;;;;;5027678;28;89453;-62
2023/11/22 03:25:30;;;;;;;;;;;;;;;;;;5027979;27;89973;-63
2023/11/22 03:27:55;;;;;;;;;;;;;;;;;;5028189;28;89029;-62
2023/11/22 03:30:21;;;;;;;;;;;;;;;;;;5025897;27;90662;-62
2023/11/22 03:32:46;;;;;;;;;;;;;;;;;;5008346;28;89130;-61
2023/11/22 03:35:12;;;;;;;;;;;;;;;;;;5008717;28;89131;-61
2023/11/22 03:37:37;;;;;;;;;;;;;;;;;;5010965;28;90758;-62
2023/11/22 03:40:03;;;;;;;;;;;;;;;;;;5008431;28;89508;-62
2023/11/22 03:42:28;;;;;;;;;;;;;;;;;;5007623;28;91413;-62
2023/11/22 03:44:53;;;;;;;;;;;;;;;;;;5007173;28;89102;-62
2023/11/22 03:47:19;;;;;;;;;;;;;;;;;;5016239;28;89778;-63
2023/11/22 03:49:44;;;;;;;;;;;;;;;;;;5028244;28;89526;-63
2023/11/22 03:52:14;;;;;;;;;;;;;;;;;;5028005;28;89191;-63
2023/11/22 03:54:39;;;;;;;;;;;;;;;;;;5028377;28;89225;-63
2023/11/22 03:57:04;;;;;;;;;;;;;;;;;;5028224;28;89659;-62
2023/11/22 03:59:30;;;;;;;;;;;;;;;;;;5030350;28;89704;-62
2023/11/22 04:01:55;;;;;;;;;;;;;;;;;;5028396;28;89485;-62
2023/11/22 04:04:20;;;;;;;;;;;;;;;;;;5028019;28;89213;-62
2023/11/22 04:06:45;;;;;;;;;;;;;;;;;;5023715;28;89957;-62
2023/11/22 04:09:14;;;;;;;;;;;;;;;;;;5026885;28;90300;-62
2023/11/22 04:11:39;;;;;;;;;;;;;;;;;;5026000;28;91789;-63
2023/11/22 04:14:04;;;;;;;;;;;;;;;;;;5028082;28;89045;-62
2023/11/22 04:16:30;;;;;;;;;;;;;;;;;;5027401;28;89482;-62
2023/11/22 04:18:55;;;;;;;;;;;;;;;;;;5027697;28;89517;-62
2023/11/22 04:21:20;;;;;;;;;;;;;;;;;;5022259;28;89465;-62
2023/11/22 04:23:45;;;;;;;;;;;;;;;;;;5009504;28;89402;-62
2023/11/22 04:26:10;;;;;;;;;;;;;;;;;;5011508;28;88927;-62
2023/11/22 04:28:35;;;;;;;;;;;;;;;;;;5011186;28;89604;-63
2023/11/22 04:31:01;;;;;;;;;;;;;;;;;;5010811;28;89172;-62
2023/11/22 04:33:27;;;;;;;;;;;;;;;;;;5010687;28;90030;-62
2023/11/22 04:35:53;;;;;;;;;;;;;;;;;;5009618;28;90740;-61
2023/11/22 04:38:18;;;;;;;;;;;;;;;;;;5011013;28;89471;-62
2023/11/22 04:40:44;;;;;;;;;;;;;;;;;;5010907;28;89797;-62
2023/11/22 04:43:09;;;;;;;;;;;;;;;;;;5013580;28;89608;-62
2023/11/22 04:45:34;;;;;;;;;;;;;;;;;;5010552;28;89229;-62
2023/11/22 04:48:00;;;;;;;;;;;;;;;;;;5010886;28;90135;-62
2023/11/22 04:50:25;;;;;;;;;;;;;;;;;;5010623;28;89420;-62
2023/11/22 04:52:51;;;;;;;;;;;;;;;;;;5010980;28;89514;-62
2023/11/22 04:55:16;;;;;;;;;;;;;;;;;;5010360;28;89636;-62
2023/11/22 04:57:41;;;;;;;;;;;;;;;;;;5009803;28;89178;-62
2023/11/22 05:00:07;;;;;;;;;;;;;;;;;;5010712;28;89521;-63
2023/11/22 05:02:32;;;;;;;;;;;;;;;;;;5012358;28;92215;-62
2023/11/22 05:04:57;;;;;;;;;;;;;;;;;;5010120;28;89933;-62
2023/11/22 05:07:22;;;;;;;;;;;;;;;;;;5010110;28;89494;-62
2023/11/22 05:09:48;;;;;;;;;;;;;;;;;;5010603;28;89546;-67
2023/11/22 05:12:14;;;;;;;;;;;;;;;;;;5009076;28;89491;-64
2023/11/22 05:14:40;;;;;;;;;;;;;;;;;;4997189;28;89630;-62
2023/11/22 05:17:05;;;;;;;;;;;;;;;;;;5000462;28;89289;-62
2023/11/22 05:19:31;;;;;;;;;;;;;;;;;;4995723;28;89037;-62
2023/11/22 05:21:57;;;;;;;;;;;;;;;;;;4997063;28;89697;-62
2023/11/22 05:24:22;;;;;;;;;;;;;;;;;;5000427;28;89615;-62
2023/11/22 05:26:47;;;;;;;;;;;;;;;;;;4993977;28;89910;-62
2023/11/22 05:29:13;;;;;;;;;;;;;;;;;;4999120;28;91265;-62
2023/11/22 05:31:38;;;;;;;;;;;;;;;;;;5000218;28;89445;-62
2023/11/22 05:34:03;;;;;;;;;;;;;;;;;;4997055;28;89641;-62
2023/11/22 05:36:29;;;;;;;;;;;;;;;;;;4991933;28;91158;-62
2023/11/22 05:38:55;;;;;;;;;;;;;;;;;;5002867;28;89579;-63
2023/11/22 05:41:20;;;;;;;;;;;;;;;;;;4999022;28;90667;-62
2023/11/22 05:43:45;;;;;;;;;;;;;;;;;;4997476;28;89720;-62
2023/11/22 05:46:12;;;;;;;;;;;;;;;;;;4995146;28;89122;-62
2023/11/22 05:48:38;;;;;;;;;;;;;;;;;;5002274;28;89173;-62
2023/11/22 05:51:03;;;;;;;;;;;;;;;;;;4992476;28;89811;-62
2023/11/22 05:53:28;;;;;;;;;;;;;;;;;;4999075;28;89552;-62
2023/11/22 05:55:53;;;;;;;;;;;;;;;;;;4994773;28;89047;-62
2023/11/22 05:58:18;;;;;;;;;;;;;;;;;;5000226;28;89754;-62
2023/11/22 06:00:44;;;;;;;;;;;;;;;;;;5006384;28;89777;-63
2023/11/22 06:03:11;;;;;;;;;;;;;;;;;;4997445;28;89383;-63
2023/11/22 06:05:36;;;;;;;;;;;;;;;;;;5001716;28;89332;-63
2023/11/22 06:08:01;;;;;;;;;;;;;;;;;;5000616;28;89785;-62
2023/11/22 06:10:26;;;;;;;;;;;;;;;;;;4997512;28;89458;-62
2023/11/22 06:12:51;;;;;;;;;;;;;;;;;;4997307;28;91071;-62
2023/11/22 06:15:18;;;;;;;;;;;;;;;;;;4998043;28;89180;-62
2023/11/22 06:17:43;;;;;;;;;;;;;;;;;;4998552;28;89036;-62
2023/11/22 06:20:09;;;;;;;;;;;;;;;;;;4999011;28;89688;-62
2023/11/22 06:22:34;;;;;;;;;;;;;;;;;;4995205;28;91995;-63
2023/11/22 06:24:59;;;;;;;;;;;;;;;;;;5002236;28;89080;-63
2023/11/22 06:27:25;;;;;;;;;;;;;;;;;;5001341;28;89934;-62
2023/11/22 06:29:50;;;;;;;;;;;;;;;;;;4998391;28;89336;-63
2023/11/22 06:32:15;;;;;;;;;;;;;;;;;;5001660;28;89488;-62
2023/11/22 06:34:40;;;;;;;;;;;;;;;;;;4997018;28;89113;-62
2023/11/22 06:37:08;;;;;;;;;;;;;;;;;;4996136;28;89204;-63
2023/11/22 06:39:33;;;;;;;;;;;;;;;;;;4997323;28;90635;-63
2023/11/22 06:41:58;;;;;;;;;;;;;;;;;;5003161;28;90257;-62
2023/11/22 06:44:24;;;;;;;;;;;;;;;;;;5001586;28;89686;-62
2023/11/22 06:46:49;;;;;;;;;;;;;;;;;;5001261;28;90021;-62
2023/11/22 06:49:14;;;;;;;;;;;;;;;;;;5002970;28;90323;-62
2023/11/22 06:51:39;;;;;;;;;;;;;;;;;;5000453;28;89401;-62
2023/11/22 06:54:06;;;;;;;;;;;;;;;;;;4996883;28;89555;-62
2023/11/22 06:56:32;;;;;;;;;;;;;;;;;;4997690;28;89628;-62
2023/11/22 06:58:57;;;;;;;;;;;;;;;;;;4998963;28;91003;-62
2023/11/22 07:01:25;;;;;;;;;;;;;;;;;;4999127;28;89938;-62
2023/11/22 07:03:52;;;;;;;;;;;;;;;;;;4997267;28;88964;-63
2023/11/22 07:06:18;;;;;;;;;;;;;;;;;;4989522;28;90768;-62
2023/11/22 07:08:44;;;;;;;;;;;;;;;;;;4993647;28;90118;-62
2023/11/22 07:11:10;;;;;;;;;;;;;;;;;;5001947;28;90500;-62
2023/11/22 07:13:38;;;;;;;;;;;;;;;;;;5000907;28;89227;-62
2023/11/22 07:16:04;;;;;;;;;;;;;;;;;;4997398;28;89189;-63
2023/11/22 07:18:29;;;;;;;;;;;;;;;;;;4998909;28;89555;-62
2023/11/22 07:20:55;;;;;;;;;;;;;;;;;;4999651;28;89216;-62
2023/11/22 07:23:22;;;;;;;;;;;;;;;;;;4997075;28;89436;-62
2023/11/22 07:25:47;;;;;;;;;;;;;;;;;;4998157;28;89649;-62
2023/11/22 07:28:13;;;;;;;;;;;;;;;;;;4991542;28;89831;-63
2023/11/22 07:30:41;;;;;;;;;;;;;;;;;;4990367;28;90223;-62
2023/11/22 07:33:06;;;;;;;;;;;;;;;;;;4994749;28;89420;-62
2023/11/22 07:35:31;;;;;;;;;;;;;;;;;;4996747;28;89449;-62
2023/11/22 07:37:57;;;;;;;;;;;;;;;;;;4997770;28;90595;-62
2023/11/22 07:40:23;;;;;;;;;;;;;;;;;;5009226;28;89624;-62
2023/11/22 07:42:49;;;;;;;;;;;;;;;;;;5013303;28;89509;-62
2023/11/22 07:45:14;;;;;;;;;;;;;;;;;;4993034;28;90988;-65
2023/11/22 07:47:40;;;;;;;;;;;;;;;;;;5007025;28;89216;-63
2023/11/22 07:50:07;;;;;;;;;;;;;;;;;;5003228;28;89644;-63
2023/11/22 07:52:32;;;;;;;;;;;;;;;;;;5000257;28;89470;-68
2023/11/22 07:54:57;;;;;;;;;;;;;;;;;;5009119;28;90190;-63
2023/11/22 07:57:23;;;;;;;;;;;;;;;;;;5004262;28;89612;-65
2023/11/22 07:59:48;;;;;;;;;;;;;;;;;;5004652;28;89877;-64
2023/11/22 08:02:13;;;;;;;;;;;;;;;;;;5005028;28;90425;-64
2023/11/22 08:04:40;;;;;;;;;;;;;;;;;;5005391;28;90009;-63
2023/11/22 08:07:05;;;;;;;;;;;;;;;;;;5004327;28;90114;-64
2023/11/22 08:09:32;;;;;;;;;;;;;;;;;;5002433;28;89815;-64
2023/11/22 08:11:57;;;;;;;;;;;;;;;;;;5007888;28;90460;-64
2023/11/22 08:14:23;;;;;;;;;;;;;;;;;;5002303;28;90281;-64
2023/11/22 08:16:48;;;;;;;;;;;;;;;;;;5002532;28;89348;-64
2023/11/22 08:19:13;;;;;;;;;;;;;;;;;;5000350;28;90073;-62
2023/11/22 08:21:39;;;;;;;;;;;;;;;;;;4997958;28;90646;-64
2023/11/22 08:24:04;;;;;;;;;;;;;;;;;;4997231;28;90346;-63
2023/11/22 08:26:29;;;;;;;;;;;;;;;;;;5004580;28;89835;-60
2023/11/22 08:28:55;;;;;;;;;;;;;;;;;;5003156;28;89765;-66
2023/11/22 08:31:20;;;;;;;;;;;;;;;;;;5002393;28;89556;-64
2023/11/22 08:33:45;;;;;;;;;;;;;;;;;;5005063;28;89285;-64
2023/11/22 08:36:11;;;;;;;;;;;;;;;;;;4995492;28;89394;-61
2023/11/22 08:38:36;;;;;;;;;;;;;;;;;;5002699;28;89549;-65
2023/11/22 08:41:05;;;;;;;;;;;;;;;;;;4995441;28;89161;-60
2023/11/22 08:43:31;;;;;;;;;;;;;;;;;;4993890;28;89456;-64
2023/11/22 08:45:57;;;;;;;;;;;;;;;;;;4998247;28;90159;-64
2023/11/22 08:48:22;;;;;;;;;;;;;;;;;;5010129;28;89875;-63
2023/11/22 08:50:48;;;;;;;;;;;;;;;;;;5008166;28;90721;-64
2023/11/22 08:53:13;;;;;;;;;;;;;;;;;;4991295;28;90336;-65
2023/11/22 08:55:38;;;;;;;;;;;;;;;;;;5000356;28;90397;-65
2023/11/22 08:58:05;;;;;;;;;;;;;;;;;;5003735;28;90487;-60
2023/11/22 09:00:32;;;;;;;;;;;;;;;;;;5001820;28;90304;-58
2023/11/22 09:02:57;;;;;;;;;;;;;;;;;;4998448;28;89267;-60
2023/11/22 09:05:22;;;;;;;;;;;;;;;;;;4994296;28;89278;-60
2023/11/22 09:07:47;;;;;;;;;;;;;;;;;;4998353;28;89246;-59
2023/11/22 09:10:14;;;;;;;;;;;;;;;;;;4999486;28;89700;-60
2023/11/22 09:12:40;;;;;;;;;;;;;;;;;;5007480;28;89499;-57
2023/11/22 09:15:11;;;;;;;;;;;;;;;;;;5000856;28;89681;-62
2023/11/22 09:17:43;;;;;;;;;;;;;;;;;;4993307;28;89533;-62
2023/11/22 09:20:14;;;;;;;;;;;;;;;;;;4995616;28;90878;-59
2023/11/22 09:22:46;;;;;;;;;;;;;;;;;;4992211;28;89513;-61
2023/11/22 09:25:11;;;;;;;;;;;;;;;;;;4994800;28;89566;-61
2023/11/22 09:27:37;;;;;;;;;;;;;;;;;;4995083;28;89580;-61
2023/11/22 09:30:03;;;;;;;;;;;;;;;;;;4995894;28;89676;-58
2023/11/22 09:32:28;;;;;;;;;;;;;;;;;;4997980;28;90020;-59
2023/11/22 09:34:57;;;;;;;;;;;;;;;;;;4998618;28;89550;-58
2023/11/22 09:37:23;;;;;;;;;;;;;;;;;;4997411;28;89395;-58
2023/11/22 09:39:48;;;;;;;;;;;;;;;;;;4995857;28;90168;-61
2023/11/22 09:42:13;;;;;;;;;;;;;;;;;;5001480;28;89036;-60
2023/11/22 09:44:39;;;;;;;;;;;;;;;;;;4989460;28;90715;-60
2023/11/22 09:47:04;;;;;;;;;;;;;;;;;;4999931;28;90410;-59
2023/11/22 09:49:29;;;;;;;;;;;;;;;;;;5001750;28;89596;-58
2023/11/22 09:51:57;;;;;;;;;;;;;;;;;;4996043;28;89312;-60
2023/11/22 09:54:29;;;;;;;;;;;;;;;;;;4999136;28;89354;-60
2023/11/22 09:56:55;;;;;;;;;;;;;;;;;;4992589;28;90011;-62
2023/11/22 09:59:23;;;;;;;;;;;;;;;;;;4994490;28;89728;-62
2023/11/22 10:01:48;;;;;;;;;;;;;;;;;;4997021;28;89089;-61
2023/11/22 10:04:14;;;;;;;;;;;;;;;;;;4999972;28;90745;-61
2023/11/22 10:06:40;;;;;;;;;;;;;;;;;;5004012;28;90558;-58
2023/11/22 10:09:07;;;;;;;;;;;;;;;;;;4993432;28;90702;-61
2023/11/22 10:11:33;;;;;;;;;;;;;;;;;;4997414;28;90199;-60
2023/11/22 10:13:58;;;;;;;;;;;;;;;;;;4995906;28;90002;-61
2023/11/22 10:16:23;;;;;;;;;;;;;;;;;;4994766;28;89567;-61
2023/11/22 10:18:49;;;;;;;;;;;;;;;;;;4995413;28;89858;-59
2023/11/22 10:21:21;;;;;;;;;;;;;;;;;;4995608;28;90478;-58
2023/11/22 10:23:51;;;;;;;;;;;;;;;;;;4994019;28;90638;-58
2023/11/22 10:26:17;;;;;;;;;;;;;;;;;;5004052;28;89223;-61
2023/11/22 10:28:45;;;;;;;;;;;;;;;;;;4997223;28;90016;-61
2023/11/22 10:31:10;;;;;;;;;;;;;;;;;;4996085;28;89042;-60
2023/11/22 10:33:39;;;;;;;;;;;;;;;;;;4997255;28;88948;-61
2023/11/22 10:36:06;;;;;;;;;;;;;;;;;;4997235;28;90666;-58
2023/11/22 10:38:33;;;;;;;;;;;;;;;;;;4994747;28;89645;-60
2023/11/22 10:40:59;;;;;;;;;;;;;;;;;;4994178;28;89005;-60
2023/11/22 10:43:26;;;;;;;;;;;;;;;;;;4999617;28;90554;-58
2023/11/22 10:45:53;;;;;;;;;;;;;;;;;;4989432;28;90265;-61
2023/11/22 10:48:19;;;;;;;;;;;;;;;;;;5011046;28;88990;-62
2023/11/22 10:50:45;;;;;;;;;;;;;;;;;;4995606;28;90356;-61
2023/11/22 10:53:25;;;;;;;;;;;;;;;;;;4999183;28;89515;-62
2023/11/22 10:55:53;;;;;;;;;;;;;;;;;;5003715;28;90733;-60
2023/11/22 10:58:20;;;;;;;;;;;;;;;;;;4998199;28;89221;-59
2023/11/22 11:00:45;;;;;;;;;;;;;;;;;;4994643;28;89182;-61
2023/11/22 11:03:17;;;;;;;;;;;;;;;;;;4988222;28;90867;-60
2023/11/22 11:05:50;;;;;;;;;;;;;;;;;;4991793;28;91919;-60
2023/11/22 11:08:17;;;;;;;;;;;;;;;;;;4995508;28;89390;-61
2023/11/22 11:10:44;;;;;;;;;;;;;;;;;;5002683;28;89246;-62
2023/11/22 11:13:10;;;;;;;;;;;;;;;;;;5001602;28;89337;-61
2023/11/22 11:15:37;;;;;;;;;;;;;;;;;;4990093;28;90814;-61
2023/11/22 11:18:04;;;;;;;;;;;;;;;;;;4999820;28;89522;-60
2023/11/22 11:20:32;;;;;;;;;;;;;;;;;;4997651;28;90125;-61
2023/11/22 11:22:58;;;;;;;;;;;;;;;;;;4990689;28;89430;-62
2023/11/22 11:25:24;;;;;;;;;;;;;;;;;;4988583;28;89377;-60
2023/11/22 11:27:57;;;;;;;;;;;;;;;;;;4993295;28;89700;-61
2023/11/22 11:30:43;;;;;;;;;;;;;;;;;;5002314;28;90741;-61
2023/11/22 11:33:08;;;;;;;;;;;;;;;;;;4996337;28;89374;-61
2023/11/22 11:35:41;;;;;;;;;;;;;;;;;;4988709;28;90667;-60
2023/11/22 11:38:09;;;;;;;;;;;;;;;;;;4994547;28;89220;-60
2023/11/22 11:40:34;;;;;;;;;;;;;;;;;;4994543;28;89136;-62
2023/11/22 11:42:59;;;;;;;;;;;;;;;;;;4997936;28;90590;-59
2023/11/22 11:45:26;;;;;;;;;;;;;;;;;;4995095;28;90076;-60
2023/11/22 11:47:52;;;;;;;;;;;;;;;;;;4993178;28;89447;-59
2023/11/22 11:50:17;;;;;;;;;;;;;;;;;;4998595;28;89670;-59
2023/11/22 11:52:42;;;;;;;;;;;;;;;;;;4990402;28;89220;-59
2023/11/22 11:55:08;;;;;;;;;;;;;;;;;;4993808;28;89541;-58
2023/11/22 11:57:33;;;;;;;;;;;;;;;;;;4998678;28;89436;-59
2023/11/22 11:59:59;;;;;;;;;;;;;;;;;;4995186;28;89070;-60
2023/11/22 12:02:24;;;;;;;;;;;;;;;;;;4995376;28;90567;-59
2023/11/22 12:04:50;;;;;;;;;;;;;;;;;;4997828;28;90283;-60
2023/11/22 12:07:15;;;;;;;;;;;;;;;;;;4995848;28;90472;-60
2023/11/22 12:09:40;;;;;;;;;;;;;;;;;;5005834;28;89478;-60
2023/11/22 12:12:06;;;;;;;;;;;;;;;;;;5001467;28;90291;-60
2023/11/22 12:14:31;;;;;;;;;;;;;;;;;;5001232;28;89458;-63
2023/11/22 12:16:59;;;;;;;;;;;;;;;;;;4995232;28;89867;-60
2023/11/22 12:19:26;;;;;;;;;;;;;;;;;;5004427;28;90744;-60
2023/11/22 12:21:52;;;;;;;;;;;;;;;;;;4994338;28;89653;-60
2023/11/22 12:24:18;;;;;;;;;;;;;;;;;;5001168;28;89210;-60
2023/11/22 12:26:49;;;;;;;;;;;;;;;;;;4996985;28;89473;-59
2023/11/22 12:29:14;;;;;;;;;;;;;;;;;;4992004;28;90792;-60
2023/11/22 12:31:47;;;;;;;;;;;;;;;;;;4994541;28;89175;-60
2023/11/22 12:34:15;;;;;;;;;;;;;;;;;;4997997;28;89796;-60
2023/11/22 12:36:41;;;;;;;;;;;;;;;;;;4996642;28;90683;-60
2023/11/22 12:39:08;;;;;;;;;;;;;;;;;;4999453;28;89758;-60
2023/11/22 12:41:33;;;;;;;;;;;;;;;;;;4994644;28;91921;-60
2023/11/22 12:44:05;;;;;;;;;;;;;;;;;;4998845;28;89303;-61
2023/11/22 12:46:44;;;;;;;;;;;;;;;;;;4999800;28;90858;-60
2023/11/22 12:49:10;;;;;;;;;;;;;;;;;;4996390;28;90180;-59
2023/11/22 12:51:36;;;;;;;;;;;;;;;;;;4997204;28;90506;-60
2023/11/22 12:54:01;;;;;;;;;;;;;;;;;;4997754;28;89735;-59
2023/11/22 12:56:28;;;;;;;;;;;;;;;;;;4995167;28;90973;-59
2023/11/22 12:58:53;;;;;;;;;;;;;;;;;;5004174;28;89837;-60
2023/11/22 13:01:20;;;;;;;;;;;;;;;;;;4999537;28;89462;-66
2023/11/22 13:03:45;;;;;;;;;;;;;;;;;;4999343;28;89491;-59
2023/11/22 13:06:10;;;;;;;;;;;;;;;;;;4998179;28;89371;-59
2023/11/22 13:08:36;;;;;;;;;;;;;;;;;;5000084;28;88987;-62
2023/11/22 13:11:01;;;;;;;;;;;;;;;;;;5005977;28;89100;-60
2023/11/22 13:13:30;;;;;;;;;;;;;;;;;;5000800;28;90256;-61
2023/11/22 13:15:55;;;;;;;;;;;;;;;;;;5001874;28;91263;-61
2023/11/22 13:18:21;;;;;;;;;;;;;;;;;;5004328;28;90595;-61
2023/11/22 13:20:47;;;;;;;;;;;;;;;;;;5004728;28;90755;-61
2023/11/22 13:23:13;;;;;;;;;;;;;;;;;;5004176;28;90305;-61
2023/11/22 13:25:39;;;;;;;;;;;;;;;;;;5000837;28;89687;-61
2023/11/22 13:28:05;;;;;;;;;;;;;;;;;;5000055;28;90326;-60
2023/11/22 13:30:31;;;;;;;;;;;;;;;;;;5000951;28;90092;-61
2023/11/22 13:32:57;;;;;;;;;;;;;;;;;;5003812;28;89804;-61
2023/11/22 13:35:22;;;;;;;;;;;;;;;;;;4991548;28;90825;-62
2023/11/22 13:37:48;;;;;;;;;;;;;;;;;;4997318;28;89208;-60
2023/11/22 13:40:14;;;;;;;;;;;;;;;;;;4996772;28;89459;-59
2023/11/22 13:42:48;;;;;;;;;;;;;;;;;;4998538;28;89846;-60
2023/11/22 13:45:19;;;;;;;;;;;;;;;;;;5000672;28;89176;-61
2023/11/22 13:47:47;;;;;;;;;;;;;;;;;;5000871;28;90181;-60
2023/11/22 13:50:18;;;;;;;;;;;;;;;;;;4999986;28;89804;-61
2023/11/22 13:52:45;;;;;;;;;;;;;;;;;;5000372;28;89152;-61
2023/11/22 13:55:12;;;;;;;;;;;;;;;;;;4999069;28;90262;-60
2023/11/22 13:57:37;;;;;;;;;;;;;;;;;;4997048;28;89473;-62
2023/11/22 14:00:11;;;;;;;;;;;;;;;;;;4997322;28;89145;-60
2023/11/22 14:02:36;;;;;;;;;;;;;;;;;;5011504;28;90894;-60
2023/11/22 14:05:03;;;;;;;;;;;;;;;;;;5000826;28;89956;-60
2023/11/22 14:07:29;;;;;;;;;;;;;;;;;;4999602;28;89464;-61
2023/11/22 14:09:55;;;;;;;;;;;;;;;;;;4995791;28;90203;-60
2023/11/22 14:12:20;;;;;;;;;;;;;;;;;;4099088;27;10000682;-60
2023/11/22 14:14:46;;;;;;;;;;;;;;;;;;4960684;28;90191;-60
2023/11/22 14:17:13;;;;;;;;;;;;;;;;;;4963101;28;89845;-60
2023/11/22 14:19:39;;;;;;;;;;;;;;;;;;4961535;28;89650;-60
2023/11/22 14:22:08;;;;;;;;;;;;;;;;;;4954685;28;89695;-61
2023/11/22 14:24:36;;;;;;;;;;;;;;;;;;4966915;28;90670;-61
2023/11/22 14:27:02;;;;;;;;;;;;;;;;;;4966129;28;89496;-60
2023/11/22 14:29:28;;;;;;;;;;;;;;;;;;4963067;28;89730;-61
2023/11/22 14:31:53;;;;;;;;;;;;;;;;;;4960479;28;89716;-61
2023/11/22 14:34:18;;;;;;;;;;;;;;;;;;4965776;28;89014;-60
2023/11/22 14:36:44;;;;;;;;;;;;;;;;;;4962782;28;90646;-60
2023/11/22 14:39:12;;;;;;;;;;;;;;;;;;4964340;28;90311;-61
2023/11/22 14:41:37;;;;;;;;;;;;;;;;;;4963602;28;89521;-61
2023/11/22 14:44:02;;;;;;;;;;;;;;;;;;4961127;28;90198;-61
2023/11/22 14:46:28;;;;;;;;;;;;;;;;;;4965919;28;90484;-60
2023/11/22 14:48:53;;;;;;;;;;;;;;;;;;4954232;28;90764;-61
2023/11/22 14:51:18;;;;;;;;;;;;;;;;;;4962934;28;89493;-61
2023/11/22 14:53:43;;;;;;;;;;;;;;;;;;4964308;28;89451;-61
2023/11/22 14:56:09;;;;;;;;;;;;;;;;;;4962985;28;89704;-61
2023/11/22 14:58:34;;;;;;;;;;;;;;;;;;4965272;28;89489;-62
2023/11/22 15:01:00;;;;;;;;;;;;;;;;;;4963501;28;89093;-60
2023/11/22 15:03:27;;;;;;;;;;;;;;;;;;4960893;28;89475;-60
2023/11/22 15:05:52;;;;;;;;;;;;;;;;;;4963234;28;89561;-60
2023/11/22 15:08:17;;;;;;;;;;;;;;;;;;4964027;28;89225;-60
2023/11/22 15:10:43;;;;;;;;;;;;;;;;;;4963379;28;90916;-60
2023/11/22 15:13:09;;;;;;;;;;;;;;;;;;4961735;28;89531;-60
2023/11/22 15:15:35;;;;;;;;;;;;;;;;;;4966572;28;90833;-61
2023/11/22 15:18:00;;;;;;;;;;;;;;;;;;4965178;28;89073;-60
2023/11/22 15:20:26;;;;;;;;;;;;;;;;;;4962999;28;90138;-61
2023/11/22 15:22:51;;;;;;;;;;;;;;;;;;4969772;28;89711;-59
2023/11/22 15:25:16;;;;;;;;;;;;;;;;;;4966930;28;89014;-59
2023/11/22 15:27:44;;;;;;;;;;;;;;;;;;4964810;28;89580;-59
2023/11/22 15:30:12;;;;;;;;;;;;;;;;;;4969948;28;89944;-61
2023/11/22 15:32:37;;;;;;;;;;;;;;;;;;4967051;28;90443;-61
2023/11/22 15:35:04;;;;;;;;;;;;;;;;;;4970524;28;90605;-61
2023/11/22 15:37:30;;;;;;;;;;;;;;;;;;4964917;28;89968;-60
2023/11/22 15:39:55;;;;;;;;;;;;;;;;;;4960762;28;89554;-61
2023/11/22 15:42:20;;;;;;;;;;;;;;;;;;4973032;28;90633;-60
2023/11/22 15:44:46;;;;;;;;;;;;;;;;;;4965832;28;89415;-59
2023/11/22 15:47:11;;;;;;;;;;;;;;;;;;4969060;28;90071;-60
2023/11/22 15:49:36;;;;;;;;;;;;;;;;;;4966137;28;89580;-59
2023/11/22 15:52:02;;;;;;;;;;;;;;;;;;4963374;28;89622;-60
2023/11/22 15:54:27;;;;;;;;;;;;;;;;;;4963056;28;90640;-61
2023/11/22 15:56:52;;;;;;;;;;;;;;;;;;4964671;28;89946;-61
2023/11/22 15:59:18;;;;;;;;;;;;;;;;;;4960984;28;89427;-61
2023/11/22 16:01:43;;;;;;;;;;;;;;;;;;4962614;28;90646;-60
2023/11/22 16:04:08;;;;;;;;;;;;;;;;;;4964387;28;90277;-58
2023/11/22 16:06:35;;;;;;;;;;;;;;;;;;4963212;28;90871;-59
2023/11/22 16:09:00;;;;;;;;;;;;;;;;;;4960626;28;90683;-58
2023/11/22 16:11:25;;;;;;;;;;;;;;;;;;4970383;28;90952;-59
2023/11/22 16:13:51;;;;;;;;;;;;;;;;;;4962227;28;89413;-58
2023/11/22 16:16:17;;;;;;;;;;;;;;;;;;4961245;28;90231;-58
2023/11/22 16:18:43;;;;;;;;;;;;;;;;;;4965147;28;89622;-58
2023/11/22 16:21:10;;;;;;;;;;;;;;;;;;4964256;28;90570;-61
2023/11/22 16:23:36;;;;;;;;;;;;;;;;;;4966397;28;90139;-59
2023/11/22 16:26:02;;;;;;;;;;;;;;;;;;4967646;28;89364;-59
2023/11/22 16:28:27;;;;;;;;;;;;;;;;;;4966749;28;90721;-60
2023/11/22 16:30:52;;;;;;;;;;;;;;;;;;4963643;28;90916;-60
2023/11/22 16:33:20;;;;;;;;;;;;;;;;;;4970317;28;90142;-60
2023/11/22 16:35:46;;;;;;;;;;;;;;;;;;4964964;28;90265;-59
2023/11/22 16:38:11;;;;;;;;;;;;;;;;;;4966700;28;89051;-61